Time;durP1;ratioP1;P1;durP2;ratioP2;P2;SDS_P1;SDS_P2;PMS_P1;PMS_P2;Temp;Humidity;BMP_temperature;BMP_pressure;BME280_temperature;BME280_humidity;BME280_pressure;Samples;Min_cycle;Max_cycle;Signal;HPM_P1;HPM_P2
2022/02/18 11:14:53;;;;;;;19.20;4.30;;;18.20;18.10;;;;;;5113411;27;20604;-54
2022/02/18 11:17:19;;;;;;;10.50;5.23;;;18.90;12.80;;;;;;5090959;28;20863;-55
2022/02/18 11:19:45;;;;;;;12.27;6.03;;;19.80;10.70;;;;;;5090573;28;20453;-54
2022/02/18 11:22:11;;;;;;;20.63;7.80;;;20.60;9.10;;;;;;5089452;28;20179;-55
2022/02/18 11:24:38;;;;;;;21.00;9.03;;;21.30;8.30;;;;;;5090228;28;20172;-55
2022/02/18 11:31:05;;;;;;;19.27;7.63;;;22.50;5.60;;;;;;5058223;27;20584;-61
2022/02/18 11:35:01;;;;;;;;;;;23.00;6.50;;;;;;5071723;27;19976;-55
2022/02/18 11:39:36;;;;;;;;;;;23.60;7.20;;;;;;5069219;28;19967;-53
2022/02/18 11:44:02;;;;;;;17.58;8.70;;;23.90;4.40;;;;;;5036697;28;20796;-47
2022/02/18 11:46:28;;;;;;;20.63;9.47;;;23.90;4.40;;;;;;4988856;28;20648;-46
2022/02/18 11:48:56;;;;;;;20.23;9.07;;;24.00;4.30;;;;;;4975042;28;20884;-49
2022/02/18 11:51:26;;;;;;;17.47;9.67;;;24.10;4.50;;;;;;4988478;28;20419;-49
2022/02/18 11:53:59;;;;;;;17.13;9.33;;;24.10;4.20;;;;;;5006567;28;20429;-49
2022/02/18 11:56:49;;;;;;;18.60;8.63;;;24.00;4.70;;;;;;5005798;28;20441;-49
2022/02/18 11:59:15;;;;;;;19.80;10.23;;;24.00;4.30;;;;;;5004284;28;20431;-52
2022/02/18 12:02:07;;;;;;;20.50;8.60;;;24.00;4.60;;;;;;4991348;28;20462;-51
2022/02/18 12:04:33;;;;;;;15.97;9.20;;;24.00;4.70;;;;;;4988816;28;20470;-58
2022/02/18 12:07:16;;;;;;;17.13;8.80;;;24.00;4.70;;;;;;4987864;28;20426;-61
2022/02/18 12:09:48;;;;;;;15.82;8.70;;;23.80;4.70;;;;;;4987043;28;20417;-61
2022/02/18 12:12:41;;;;;;;14.73;8.50;;;23.70;5.20;;;;;;4995592;28;20583;-58
2022/02/18 12:15:29;;;;;;;16.07;8.10;;;23.60;5.30;;;;;;4989913;28;20542;-58
2022/02/18 12:18:04;;;;;;;13.27;8.00;;;23.50;5.50;;;;;;4986667;28;20431;-58
2022/02/18 12:20:34;;;;;;;15.70;7.20;;;23.50;5.40;;;;;;4986911;28;20434;-59
2022/02/18 12:23:25;;;;;;;15.13;7.40;;;23.40;5.00;;;;;;4988000;28;20818;-58
2022/02/18 12:26:22;;;;;;;14.27;7.30;;;23.40;5.10;;;;;;4987834;28;20454;-61
2022/02/18 12:28:51;;;;;;;12.63;7.43;;;23.40;5.30;;;;;;4988373;28;20539;-59
2022/02/18 12:31:17;;;;;;;11.87;7.17;;;23.40;5.50;;;;;;4988505;28;20438;-59
2022/02/18 12:33:44;;;;;;;10.10;6.17;;;23.40;5.60;;;;;;4989808;28;20418;-60
2022/02/18 12:36:15;;;;;;;13.93;6.63;;;23.40;5.60;;;;;;4988558;28;20439;-60
2022/02/18 12:38:43;;;;;;;10.50;5.90;;;23.40;5.50;;;;;;4988122;28;20422;-60
2022/02/18 12:41:20;;;;;;;12.50;5.93;;;23.40;5.50;;;;;;4987329;28;20431;-58
2022/02/18 12:43:46;;;;;;;12.60;5.80;;;23.40;5.80;;;;;;4987259;28;20470;-61
2022/02/18 12:46:12;;;;;;;10.30;6.20;;;23.40;5.70;;;;;;4987444;28;20450;-61
2022/02/18 12:48:47;;;;;;;11.17;5.97;;;23.40;5.80;;;;;;4966786;28;20419;-57
2022/02/18 12:51:25;;;;;;;14.73;6.93;;;23.30;5.70;;;;;;4966308;28;20423;-59
2022/02/18 12:53:53;;;;;;;13.30;6.03;;;23.40;5.60;;;;;;4963361;28;20964;-58
2022/02/18 12:56:23;;;;;;;10.90;6.20;;;23.40;6.10;;;;;;4955082;28;20436;-59
2022/02/18 12:59:04;;;;;;;10.00;5.30;;;23.40;6.00;;;;;;4955812;28;20424;-58
2022/02/18 13:01:30;;;;;;;7.40;6.00;;;23.40;6.20;;;;;;4959288;28;20432;-60
2022/02/18 13:03:57;;;;;;;9.40;6.17;;;23.40;5.90;;;;;;4973778;28;20467;-60
2022/02/18 13:06:23;;;;;;;10.63;6.20;;;23.40;6.10;;;;;;4975642;28;20475;-60
2022/02/18 13:08:49;;;;;;;8.60;5.67;;;23.40;6.10;;;;;;4977884;28;20424;-59
2022/02/18 13:11:20;;;;;;;11.10;6.10;;;23.40;6.00;;;;;;4977289;28;20423;-59
2022/02/18 13:13:46;;;;;;;9.10;5.50;;;23.40;6.00;;;;;;4975134;28;20423;-58
2022/02/18 13:16:17;;;;;;;8.00;5.10;;;23.40;5.80;;;;;;4977171;28;20514;-60
2022/02/18 13:18:43;;;;;;;9.70;6.03;;;23.40;6.00;;;;;;4975177;28;20184;-59
2022/02/18 13:21:09;;;;;;;8.33;5.30;;;23.40;6.00;;;;;;4973624;28;21162;-58
2022/02/18 13:23:35;;;;;;;7.17;5.23;;;23.40;6.10;;;;;;4973862;28;20196;-58
2022/02/18 13:26:06;;;;;;;7.53;5.03;;;23.40;6.00;;;;;;4973585;28;21016;-59
2022/02/18 13:28:45;;;;;;;9.40;5.30;;;23.40;5.90;;;;;;4973732;28;20407;-58
2022/02/18 13:31:14;;;;;;;6.43;4.60;;;23.50;6.00;;;;;;4973092;28;20503;-60
2022/02/18 13:33:51;;;;;;;9.63;5.10;;;23.50;5.80;;;;;;4972416;28;20465;-59
2022/02/18 13:36:29;;;;;;;9.13;5.60;;;23.50;5.90;;;;;;4973704;28;20422;-60
2022/02/18 13:39:01;;;;;;;9.30;4.70;;;23.40;5.90;;;;;;4973810;28;20408;-59
2022/02/18 13:41:33;;;;;;;11.03;5.30;;;23.50;5.90;;;;;;4972986;28;20426;-60
2022/02/18 13:44:13;;;;;;;8.03;4.17;;;23.50;5.80;;;;;;4973598;28;21086;-59
2022/02/18 13:46:43;;;;;;;7.43;5.10;;;23.40;6.10;;;;;;4973883;28;20460;-57
2022/02/18 13:49:20;;;;;;;9.70;5.33;;;23.40;6.00;;;;;;4973663;28;20416;-58
2022/02/18 13:51:57;;;;;;;9.75;5.65;;;23.40;5.90;;;;;;4975218;28;20936;-55
2022/02/18 13:54:28;;;;;;;10.73;5.40;;;23.50;6.40;;;;;;4992977;28;20203;-53
2022/02/18 13:57:09;;;;;;;10.77;4.63;;;23.50;6.50;;;;;;4992654;28;20513;-53
2022/02/18 13:59:35;;;;;;;8.60;5.17;;;23.60;6.80;;;;;;4992661;28;20443;-53
2022/02/18 14:02:22;;;;;;;17.20;5.50;;;23.60;6.80;;;;;;4994432;28;20458;-53
2022/02/18 14:04:51;;;;;;;11.13;5.73;;;23.60;6.20;;;;;;5009248;23;20487;-53
2022/02/18 14:07:29;;;;;;;12.40;5.03;;;23.40;6.00;;;;;;5009916;28;20426;-54
2022/02/18 14:09:59;;;;;;;15.63;11.77;;;23.60;6.80;;;;;;4995561;28;20433;-54
2022/02/18 14:12:31;;;;;;;11.73;6.00;;;23.50;6.10;;;;;;4996549;28;20446;-54
2022/02/18 14:15:03;;;;;;;11.87;6.20;;;23.50;6.10;;;;;;4978320;28;20522;-54
2022/02/18 14:17:30;;;;;;;12.97;5.97;;;23.40;6.30;;;;;;4995575;28;20419;-54
2022/02/18 14:20:00;;;;;;;9.67;5.60;;;23.40;6.40;;;;;;4977679;28;20423;-54
2022/02/18 14:22:31;;;;;;;12.40;5.67;;;23.50;6.60;;;;;;4977227;28;20471;-53
2022/02/18 14:25:00;;;;;;;9.00;5.07;;;23.50;5.90;;;;;;4995244;28;20509;-54
2022/02/18 14:27:27;;;;;;;13.80;5.43;;;23.40;5.50;;;;;;4996106;28;20994;-54
2022/02/18 14:30:02;;;;;;;8.13;5.10;;;23.60;5.60;;;;;;5005493;28;20440;-54
